createdAt,value
2022-08-24T06:14:07.862Z,79.14
2022-08-24T06:24:07.625Z,76.87
2022-08-24T06:34:07.789Z,74.14
2022-08-24T06:44:07.857Z,71.33
2022-08-24T06:54:07.826Z,68.28
2022-08-24T07:04:07.639Z,67.88
2022-08-24T07:14:07.853Z,66.37
2022-08-24T07:24:07.917Z,64.14
2022-08-24T07:34:07.715Z,63.22
2022-08-24T07:44:07.948Z,62.08
2022-08-24T07:54:07.702Z,60.18
2022-08-24T08:04:07.753Z,59.04
2022-08-24T08:14:07.945Z,57.58
2022-08-24T08:24:07.872Z,56.13
2022-08-24T08:34:07.878Z,55.14
2022-08-24T08:44:07.938Z,52.85
2022-08-24T08:54:07.852Z,51.12
2022-08-24T09:04:07.908Z,49.90
2022-08-24T09:14:07.819Z,47.11
2022-08-24T09:24:07.780Z,45.99
2022-08-24T09:34:07.843Z,45.92
2022-08-24T09:44:08.021Z,43.30
2022-08-24T09:54:07.892Z,44.16
2022-08-24T10:04:07.980Z,42.36
2022-08-24T10:14:08.036Z,42.20
2022-08-24T10:24:08.192Z,41.36
2022-08-24T10:34:08.161Z,40.14
2022-08-24T10:44:07.941Z,39.67
2022-08-24T10:54:08.096Z,39.13
2022-08-24T11:04:08.038Z,39.45
2022-08-24T11:14:09.666Z,37.78
2022-08-24T11:24:08.275Z,39.01
2022-08-24T11:34:08.156Z,37.18
2022-08-24T11:44:08.159Z,36.91
2022-08-24T11:54:08.372Z,37.94
2022-08-24T12:04:08.346Z,38.82
2022-08-24T12:14:08.116Z,37.77
2022-08-24T12:24:08.268Z,38.02
2022-08-24T12:34:09.756Z,37.97
2022-08-24T12:44:08.188Z,36.84
2022-08-24T12:54:08.464Z,35.95
2022-08-24T13:04:08.250Z,36.59
2022-08-24T13:14:08.404Z,36.44
2022-08-24T13:24:08.459Z,35.55
2022-08-24T13:34:09.534Z,36.61
2022-08-24T13:44:08.594Z,36.91
2022-08-24T13:54:09.961Z,35.99
2022-08-24T14:04:08.533Z,36.14
2022-08-24T14:14:08.476Z,36.83
2022-08-24T14:24:08.543Z,37.03
2022-08-24T14:34:08.607Z,35.40
2022-08-24T14:44:08.575Z,35.95
2022-08-24T14:54:08.654Z,35.83
2022-08-24T15:04:08.606Z,35.67
2022-08-24T15:14:08.678Z,35.10
2022-08-24T15:24:10.180Z,35.07
2022-08-24T15:34:08.594Z,35.44
2022-08-24T15:44:08.550Z,35.91
2022-08-24T15:54:08.623Z,35.62
2022-08-24T16:04:08.893Z,35.55
2022-08-24T16:14:08.721Z,35.23
2022-08-24T16:24:08.831Z,35.93
2022-08-24T16:34:08.786Z,36.64
2022-08-24T16:44:08.848Z,37.23
2022-08-24T16:54:08.911Z,37.18
2022-08-24T17:04:08.833Z,37.46
2022-08-24T17:14:08.845Z,38.96
2022-08-24T17:24:08.913Z,38.63
2022-08-24T17:34:08.968Z,38.68
2022-08-24T17:44:08.837Z,40.02
2022-08-24T17:54:08.838Z,41.19
2022-08-24T18:04:08.864Z,41.72
2022-08-24T18:14:08.819Z,42.35
2022-08-24T18:24:08.876Z,43.13
2022-08-24T18:34:08.858Z,43.53
2022-08-24T18:44:08.928Z,44.54
2022-08-24T18:54:08.757Z,45.59
2022-08-24T19:04:13.469Z,47.08
2022-08-24T19:14:08.827Z,47.98
